createdAt,value
2022-08-31T00:02:39.028Z,101872.59
2022-08-31T00:05:06.404Z,101874.72
2022-08-31T00:07:34.945Z,101863.31
2022-08-31T00:10:13.893Z,101867.88
2022-08-31T00:12:42.284Z,101871.88
2022-08-31T00:15:10.091Z,101873.56
2022-08-31T00:17:36.579Z,101865.69
2022-08-31T00:20:32.315Z,101873.84
2022-08-31T00:23:02.171Z,101873.94
2022-08-31T00:25:28.704Z,101873.34
2022-08-31T00:27:55.845Z,101870.53
2022-08-31T00:30:23.314Z,101881.25
2022-08-31T00:32:49.736Z,101868.56
2022-08-31T00:35:17.069Z,101870.53
2022-08-31T00:37:43.477Z,101866.31
2022-08-31T00:40:10.507Z,101864.09
2022-08-31T00:42:36.988Z,101867.47
2022-08-31T00:45:04.695Z,101872.53
2022-08-31T00:47:31.938Z,101877.94
2022-08-31T00:50:00.084Z,101877.69
2022-08-31T00:52:35.547Z,101884.19
2022-08-31T00:55:35.324Z,101885.59
2022-08-31T00:58:07.787Z,101886.19
2022-08-31T01:00:35.159Z,101885.06
2022-08-31T01:03:03.862Z,101888.44
2022-08-31T01:05:31.340Z,101888.19
2022-08-31T01:08:00.511Z,101895.25
2022-08-31T01:10:31.696Z,101895.28
2022-08-31T01:12:58.599Z,101903.75
2022-08-31T01:15:26.749Z,101906.56
2022-08-31T01:17:57.009Z,101898.19
2022-08-31T01:20:26.108Z,101895.63
2022-08-31T01:23:06.171Z,101886.34
2022-08-31T01:25:35.154Z,101895.88
2022-08-31T01:28:05.342Z,101891.41
2022-08-31T01:30:32.450Z,101895.63
2022-08-31T01:32:59.288Z,101895.63
2022-08-31T01:35:26.444Z,101895.38
2022-08-31T01:37:53.752Z,101900.69
2022-08-31T01:40:20.488Z,101897.63
2022-08-31T01:42:47.097Z,101901.91
2022-08-31T01:45:14.768Z,101905.81
2022-08-31T01:47:41.535Z,101904.97
2022-08-31T01:50:09.022Z,101907.78
2022-08-31T01:52:37.852Z,101907.53
2022-08-31T01:55:06.942Z,101910.59
2022-08-31T01:57:34.712Z,101905.81
2022-08-31T02:00:20.190Z,101902.47
2022-08-31T02:02:47.245Z,101894.81
2022-08-31T02:05:14.488Z,101903.25
2022-08-31T02:07:41.905Z,101894.81
2022-08-31T02:10:09.407Z,101897.63
2022-08-31T02:12:35.901Z,101895.38
2022-08-31T02:15:02.573Z,101894.81
2022-08-31T02:17:29.019Z,101896.53
2022-08-31T02:19:55.680Z,101896.53
2022-08-31T02:22:22.123Z,101893.16
2022-08-31T02:24:48.570Z,101891.72
2022-08-31T02:27:16.648Z,101883.84
2022-08-31T02:29:43.949Z,101890.31
2022-08-31T02:32:20.233Z,101886.41
2022-08-31T02:34:48.556Z,101892.31
2022-08-31T02:37:15.690Z,101890.88
2022-08-31T02:39:44.031Z,101887.75
2022-08-31T02:42:11.084Z,101888.31
2022-08-31T02:44:37.604Z,101886.34
2022-08-31T02:47:04.247Z,101885.19
2022-08-31T02:49:38.886Z,101880.13
2022-08-31T02:52:05.351Z,101886.03
2022-08-31T02:54:32.006Z,101883.78
2022-08-31T02:56:58.751Z,101890.00
2022-08-31T02:59:25.190Z,101884.34
2022-08-31T03:01:52.854Z,101884.63
2022-08-31T03:04:19.450Z,101877.31
2022-08-31T03:06:47.740Z,101876.16
2022-08-31T03:09:15.906Z,101872.16
2022-08-31T03:11:42.986Z,101874.13
2022-08-31T03:14:09.511Z,101870.16
2022-08-31T03:16:39.362Z,101863.69
2022-08-31T03:19:07.078Z,101866.81
2022-08-31T03:21:33.711Z,101866.53
2022-08-31T03:24:00.171Z,101859.78
2022-08-31T03:26:27.688Z,101854.16
2022-08-31T03:28:55.862Z,101856.41
2022-08-31T03:31:40.717Z,101864.88
2022-08-31T03:34:07.275Z,101866.28
2022-08-31T03:36:33.775Z,101869.41
2022-08-31T03:39:00.207Z,101868.53
2022-08-31T03:41:26.882Z,101867.72
2022-08-31T03:43:55.218Z,101873.94
2022-08-31T03:46:21.739Z,101876.75
2022-08-31T03:48:48.640Z,101882.97
2022-08-31T03:51:16.611Z,101879.03
2022-08-31T03:53:43.158Z,101871.16
2022-08-31T03:56:15.897Z,101882.13
2022-08-31T03:58:42.360Z,101888.34
2022-08-31T04:01:13.709Z,101885.84
2022-08-31T04:04:02.166Z,101891.47
2022-08-31T04:06:47.086Z,101895.13
2022-08-31T04:09:39.742Z,101899.06
2022-08-31T04:12:34.888Z,101897.63
2022-08-31T04:15:10.681Z,101901.03
2022-08-31T04:18:06.599Z,101897.09
2022-08-31T04:20:47.473Z,101909.47
2022-08-31T04:23:14.002Z,101908.06
2022-08-31T04:25:49.654Z,101909.47
2022-08-31T04:28:16.093Z,101912.03
2022-08-31T04:30:44.603Z,101923.28
2022-08-31T04:33:14.828Z,101913.13
2022-08-31T04:35:42.337Z,101919.63
2022-08-31T04:38:10.142Z,101915.97
2022-08-31T04:40:38.708Z,101928.88
2022-08-31T04:43:06.478Z,101922.44
2022-08-31T04:45:33.121Z,101923.81
2022-08-31T04:47:59.603Z,101924.41
2022-08-31T04:50:26.063Z,101921.88
2022-08-31T04:53:08.288Z,101920.72
2022-08-31T04:55:39.979Z,101926.66
2022-08-31T04:58:06.918Z,101919.03
2022-08-31T05:00:35.383Z,101920.72
2022-08-31T05:03:19.857Z,101924.72
2022-08-31T05:05:52.263Z,101921.88
2022-08-31T05:08:19.447Z,101923.56
2022-08-31T05:10:46.407Z,101920.72
2022-08-31T05:13:13.507Z,101925.78
2022-08-31T05:15:42.288Z,101922.91
2022-08-31T05:18:09.918Z,101932.47
2022-08-31T05:20:41.179Z,101928.22
2022-08-31T05:23:08.622Z,101935.22
2022-08-31T05:25:38.943Z,101930.63
2022-08-31T05:28:05.377Z,101928.34
2022-08-31T05:30:31.899Z,101928.56
2022-08-31T05:33:04.776Z,101933.81
2022-08-31T05:35:31.606Z,101931.44
2022-08-31T05:37:58.037Z,101934.19
2022-08-31T05:40:24.633Z,101936.38
2022-08-31T05:42:51.150Z,101928.13
2022-08-31T05:45:18.968Z,101938.44
2022-08-31T05:47:47.039Z,101931.88
2022-08-31T05:50:13.527Z,101938.25
2022-08-31T05:52:41.701Z,101940.91
2022-08-31T05:55:08.855Z,101942.44
2022-08-31T05:57:35.346Z,101941.53
2022-08-31T06:00:01.799Z,101944.50
2022-08-31T06:02:29.397Z,101945.50
2022-08-31T06:04:57.698Z,101945.38
2022-08-31T06:07:24.379Z,101948.03
2022-08-31T06:09:55.642Z,101946.84
2022-08-31T06:12:25.800Z,101941.41
2022-08-31T06:14:55.314Z,101948.25
2022-08-31T06:17:21.820Z,101958.09
2022-08-31T06:19:50.051Z,101949.94
2022-08-31T06:22:17.289Z,101952.22
2022-08-31T06:24:44.305Z,101957.25
2022-08-31T06:27:10.757Z,101953.72
2022-08-31T06:29:37.599Z,101954.19
2022-08-31T06:32:10.074Z,101951.44
2022-08-31T06:34:42.702Z,101950.19
2022-08-31T06:37:21.303Z,101952.88
2022-08-31T06:40:15.586Z,101954.19
2022-08-31T06:42:56.012Z,101953.91
2022-08-31T06:45:31.943Z,101954.53
2022-08-31T06:48:17.817Z,101955.50
2022-08-31T06:50:44.392Z,101951.31
2022-08-31T06:53:10.888Z,101957.34
2022-08-31T06:56:20.151Z,101954.72
2022-08-31T06:59:13.697Z,101955.34
2022-08-31T07:01:54.930Z,101957.16
2022-08-31T07:04:34.629Z,101961.31
2022-08-31T07:07:01.760Z,101970.66
2022-08-31T07:09:28.579Z,101965.13
2022-08-31T07:11:55.095Z,101973.38
2022-08-31T07:14:24.426Z,101969.06
2022-08-31T07:16:54.772Z,101974.75
2022-08-31T07:19:22.017Z,101981.91
2022-08-31T07:21:54.640Z,101971.81
2022-08-31T07:24:25.631Z,101971.72
2022-08-31T07:26:58.068Z,101965.22
2022-08-31T07:29:34.056Z,101958.66
2022-08-31T07:32:00.596Z,101967.88
2022-08-31T07:34:30.233Z,101970.91
2022-08-31T07:37:33.407Z,101972.47
2022-08-31T07:40:18.370Z,101974.88
2022-08-31T07:42:46.977Z,101986.28
2022-08-31T07:45:27.955Z,101984.66
2022-08-31T07:47:59.648Z,101985.97
2022-08-31T07:50:31.527Z,101987.03
2022-08-31T07:53:19.224Z,101991.44
2022-08-31T07:56:00.527Z,101991.13
2022-08-31T07:58:47.718Z,101984.56
2022-08-31T08:01:15.011Z,101980.84
2022-08-31T08:03:43.998Z,101988.06
2022-08-31T08:06:45.294Z,101987.94
2022-08-31T08:09:28.177Z,101993.84
2022-08-31T08:12:06.397Z,101989.41
2022-08-31T08:14:58.929Z,102005.50
2022-08-31T08:17:36.920Z,102002.81
2022-08-31T08:20:11.648Z,101988.38
2022-08-31T08:22:54.211Z,101990.75
2022-08-31T08:25:34.795Z,101990.31
2022-08-31T08:28:43.340Z,101985.94
2022-08-31T08:31:15.672Z,101984.59
2022-08-31T08:33:43.473Z,101986.69
2022-08-31T08:36:10.121Z,101988.09
2022-08-31T08:38:41.055Z,101990.53
2022-08-31T08:41:14.043Z,101991.56
2022-08-31T08:43:44.262Z,102000.59
2022-08-31T08:46:34.543Z,101993.03
2022-08-31T08:49:13.091Z,101990.34
2022-08-31T08:51:39.901Z,101992.38
2022-08-31T08:54:13.946Z,101998.94
2022-08-31T08:56:47.070Z,101996.09
2022-08-31T08:59:19.977Z,102003.69
2022-08-31T09:01:52.967Z,101998.16
2022-08-31T09:04:44.117Z,101996.84
2022-08-31T09:07:59.714Z,101997.69
2022-08-31T09:10:33.460Z,101998.81
2022-08-31T09:13:30.174Z,102000.84
2022-08-31T09:16:22.364Z,101993.47
2022-08-31T09:18:55.109Z,101994.06
2022-08-31T09:21:31.205Z,101992.91
2022-08-31T09:24:02.562Z,101987.78
2022-08-31T09:27:17.791Z,101997.53
2022-08-31T09:29:58.407Z,101991.81
2022-08-31T09:32:32.231Z,101988.97
2022-08-31T09:35:09.113Z,101989.44
2022-08-31T09:37:48.762Z,101986.25
2022-08-31T09:40:23.675Z,101986.78
2022-08-31T09:43:07.618Z,101990.47
2022-08-31T09:45:41.225Z,101992.63
2022-08-31T09:48:08.932Z,101984.06
2022-08-31T09:50:46.849Z,101984.06
2022-08-31T09:54:00.162Z,101990.44
2022-08-31T09:56:27.695Z,101986.25
2022-08-31T09:59:01.684Z,101977.72
2022-08-31T10:01:43.012Z,101984.59
2022-08-31T10:04:27.097Z,101991.47
2022-08-31T10:07:11.256Z,101982.72
2022-08-31T10:09:57.723Z,101985.09
2022-08-31T10:12:39.458Z,101981.75
2022-08-31T10:15:45.059Z,101985.09
2022-08-31T10:18:28.729Z,101982.25
2022-08-31T10:21:09.065Z,101979.72
2022-08-31T10:23:42.852Z,101972.00
2022-08-31T10:26:18.794Z,101975.69
2022-08-31T10:28:51.476Z,101977.88
2022-08-31T10:31:29.986Z,101978.72
2022-08-31T10:34:30.678Z,101970.84
2022-08-31T10:37:12.488Z,101977.03
2022-08-31T10:39:48.688Z,101974.00
2022-08-31T10:42:25.670Z,101970.78
2022-08-31T10:45:03.424Z,101975.34
2022-08-31T10:47:34.055Z,101969.63
2022-08-31T10:50:03.443Z,101968.63
2022-08-31T10:52:56.599Z,101955.84
2022-08-31T10:55:36.110Z,101957.72
2022-08-31T10:58:17.563Z,101960.56
2022-08-31T11:01:00.632Z,101961.19
2022-08-31T11:03:59.814Z,101958.25
2022-08-31T11:06:44.979Z,101948.72
2022-08-31T11:09:22.607Z,101951.00
2022-08-31T11:12:04.933Z,101939.56
2022-08-31T11:14:45.412Z,101942.19
2022-08-31T11:17:40.994Z,101938.97
2022-08-31T11:20:25.459Z,101931.97
2022-08-31T11:23:05.525Z,101934.09
2022-08-31T11:26:07.060Z,101930.53
2022-08-31T11:28:42.810Z,101933.09
2022-08-31T11:31:23.585Z,101931.44
2022-08-31T11:34:15.115Z,101934.72
2022-08-31T11:36:56.519Z,101943.84
2022-08-31T11:39:35.532Z,101936.38
2022-08-31T11:42:28.292Z,101934.91
2022-08-31T11:45:05.522Z,101938.28
2022-08-31T11:47:35.556Z,101926.22
2022-08-31T11:50:10.217Z,101923.81
2022-08-31T11:52:36.999Z,101929.41
2022-08-31T11:55:28.417Z,101921.84
2022-08-31T11:58:07.197Z,101925.22
2022-08-31T12:00:52.270Z,101916.28
2022-08-31T12:03:38.933Z,101912.25
2022-08-31T12:06:10.483Z,101910.19
2022-08-31T12:08:52.254Z,101912.09
2022-08-31T12:11:49.605Z,101917.63
2022-08-31T12:14:34.781Z,101906.69
2022-08-31T12:17:21.264Z,101911.22
2022-08-31T12:20:09.078Z,101897.78
2022-08-31T12:23:24.437Z,101897.50
2022-08-31T12:26:24.896Z,101899.16
2022-08-31T12:29:09.989Z,101900.97
2022-08-31T12:31:39.785Z,101901.38
2022-08-31T12:34:18.057Z,101892.31
2022-08-31T12:36:45.033Z,101892.94
2022-08-31T12:39:25.759Z,101899.13
2022-08-31T12:42:02.726Z,101890.38
2022-08-31T12:44:33.127Z,101897.28
2022-08-31T12:47:05.849Z,101898.06
2022-08-31T12:50:06.600Z,101893.69
2022-08-31T12:52:40.675Z,101886.94
2022-08-31T12:55:34.563Z,101893.44
2022-08-31T12:58:17.378Z,101890.84
2022-08-31T13:00:45.374Z,101890.00
2022-08-31T13:03:24.238Z,101886.19
2022-08-31T13:06:13.716Z,101884.19
2022-08-31T13:08:49.898Z,101886.94
2022-08-31T13:11:24.528Z,101879.38
2022-08-31T13:13:53.157Z,101871.13
2022-08-31T13:16:20.437Z,101870.06
2022-08-31T13:18:47.651Z,101866.94
2022-08-31T13:21:21.898Z,101864.09
2022-08-31T13:23:48.816Z,101852.66
2022-08-31T13:26:23.033Z,101861.56
2022-08-31T13:28:58.753Z,101863.19
2022-08-31T13:31:35.533Z,101861.69
2022-08-31T13:34:07.237Z,101864.44
2022-08-31T13:36:40.151Z,101865.13
2022-08-31T13:39:21.900Z,101854.84
2022-08-31T13:42:03.126Z,101859.19
2022-08-31T13:44:39.191Z,101857.81
2022-08-31T13:47:19.229Z,101857.75
2022-08-31T13:49:48.025Z,101851.97
2022-08-31T13:52:26.081Z,101855.38
2022-08-31T13:55:01.709Z,101863.78
2022-08-31T13:57:32.863Z,101859.84
2022-08-31T14:00:26.374Z,101855.69
2022-08-31T14:02:54.015Z,101856.75
2022-08-31T14:05:30.686Z,101859.38
2022-08-31T14:08:02.290Z,101853.22
2022-08-31T14:10:36.791Z,101848.53
2022-08-31T14:13:13.863Z,101854.09
2022-08-31T14:15:56.264Z,101860.78
2022-08-31T14:18:37.694Z,101849.06
2022-08-31T14:21:20.462Z,101836.53
2022-08-31T14:23:54.014Z,101849.09
2022-08-31T14:26:26.093Z,101848.09
2022-08-31T14:28:55.986Z,101842.69
2022-08-31T14:31:32.702Z,101842.88
2022-08-31T14:34:09.500Z,101845.53
2022-08-31T14:36:44.638Z,101840.91
2022-08-31T14:39:11.605Z,101845.94
2022-08-31T14:41:38.242Z,101844.78
2022-08-31T14:44:10.038Z,101838.44
2022-08-31T14:46:41.749Z,101839.38
2022-08-31T14:49:09.609Z,101845.03
2022-08-31T14:51:39.131Z,101847.69
2022-08-31T14:54:08.977Z,101851.63
2022-08-31T14:56:39.842Z,101849.38
2022-08-31T14:59:12.458Z,101847.06
2022-08-31T15:01:40.187Z,101842.25
2022-08-31T15:04:06.769Z,101841.34
2022-08-31T15:06:33.915Z,101835.06
2022-08-31T15:09:04.550Z,101839.63
2022-08-31T15:11:35.303Z,101837.06
2022-08-31T15:14:05.252Z,101834.59
2022-08-31T15:16:32.069Z,101829.28
2022-08-31T15:18:59.144Z,101834.28
2022-08-31T15:21:26.542Z,101835.44
2022-08-31T15:23:52.984Z,101834.56
2022-08-31T15:26:21.520Z,101830.66
2022-08-31T15:28:52.441Z,101830.31
2022-08-31T15:31:23.585Z,101827.66
2022-08-31T15:33:55.310Z,101818.22
2022-08-31T15:36:24.938Z,101821.66
2022-08-31T15:38:55.448Z,101816.19
2022-08-31T15:41:23.088Z,101824.81
2022-08-31T15:43:51.471Z,101824.13
2022-08-31T15:46:39.742Z,101813.38
2022-08-31T15:49:09.705Z,101813.38
2022-08-31T15:51:50.192Z,101806.88
2022-08-31T15:54:22.535Z,101812.97
2022-08-31T15:56:55.511Z,101804.69
2022-08-31T15:59:22.882Z,101798.31
2022-08-31T16:01:51.432Z,101805.75
2022-08-31T16:04:23.590Z,101797.44
2022-08-31T16:06:52.069Z,101802.97
2022-08-31T16:09:20.561Z,101795.72
2022-08-31T16:11:48.351Z,101791.56
2022-08-31T16:14:16.367Z,101790.22
2022-08-31T16:16:45.366Z,101786.34
2022-08-31T16:19:27.751Z,101790.69
2022-08-31T16:22:00.249Z,101790.09
2022-08-31T16:24:26.743Z,101783.09
2022-08-31T16:26:56.470Z,101784.09
2022-08-31T16:29:25.128Z,101782.91
2022-08-31T16:31:51.641Z,101781.72
2022-08-31T16:34:19.681Z,101787.16
2022-08-31T16:36:49.969Z,101781.59
2022-08-31T16:39:18.007Z,101781.44
2022-08-31T16:41:45.759Z,101778.59
2022-08-31T16:44:19.918Z,101771.47
2022-08-31T16:46:46.764Z,101781.38
2022-08-31T16:49:31.823Z,101781.91
2022-08-31T16:51:58.336Z,101773.56
2022-08-31T16:54:27.758Z,101777.47
2022-08-31T16:56:57.621Z,101781.00
2022-08-31T16:59:31.318Z,101779.81
2022-08-31T17:01:58.379Z,101780.66
2022-08-31T17:07:16.230Z,101787.53
2022-08-31T17:09:43.890Z,101788.91
2022-08-31T17:12:13.906Z,101793.56
2022-08-31T17:14:47.192Z,101792.59
2022-08-31T17:17:17.299Z,101789.53
2022-08-31T17:19:45.677Z,101792.91
2022-08-31T17:22:23.264Z,101792.75
2022-08-31T17:24:56.546Z,101799.41
2022-08-31T17:27:24.949Z,101799.25
2022-08-31T17:29:53.909Z,101803.59
2022-08-31T17:32:23.421Z,101801.03
2022-08-31T17:34:51.451Z,101794.00
2022-08-31T17:37:21.477Z,101801.03
2022-08-31T17:39:50.611Z,101806.03
2022-08-31T17:42:20.942Z,101800.63
2022-08-31T17:44:50.323Z,101811.84
2022-08-31T17:47:18.252Z,101814.97
2022-08-31T17:49:46.711Z,101808.72
2022-08-31T17:52:13.604Z,101818.31
2022-08-31T17:54:43.197Z,101819.69
2022-08-31T17:57:12.945Z,101819.00
2022-08-31T17:59:42.490Z,101819.81
2022-08-31T18:02:12.615Z,101816.53
2022-08-31T18:04:40.251Z,101820.91
2022-08-31T18:07:09.052Z,101823.88
2022-08-31T18:09:39.422Z,101822.59
2022-08-31T18:12:06.693Z,101826.03
2022-08-31T18:14:34.326Z,101831.97
2022-08-31T18:17:03.026Z,101836.84
2022-08-31T18:19:29.949Z,101838.09
2022-08-31T18:21:56.621Z,101846.97
2022-08-31T18:24:23.350Z,101855.28
2022-08-31T18:26:51.573Z,101846.84
2022-08-31T18:29:23.916Z,101853.16
2022-08-31T18:31:53.888Z,101859.84
2022-08-31T18:34:23.336Z,101857.50
2022-08-31T18:36:51.729Z,101862.47
2022-08-31T18:39:34.774Z,101869.50
2022-08-31T18:42:35.611Z,101868.28
2022-08-31T18:45:18.505Z,101865.88
2022-08-31T18:50:44.399Z,101865.75
2022-08-31T18:53:15.063Z,101860.19
2022-08-31T18:55:43.834Z,101863.31
2022-08-31T18:58:10.423Z,101860.41
2022-08-31T19:00:37.406Z,101870.63
2022-08-31T19:03:04.512Z,101860.94
2022-08-31T19:05:32.612Z,101862.22
2022-08-31T19:08:00.464Z,101855.81
2022-08-31T19:10:27.895Z,101860.66
2022-08-31T19:12:55.736Z,101859.69
2022-08-31T19:15:25.551Z,101869.38
2022-08-31T19:18:01.896Z,101865.56
2022-08-31T19:20:29.315Z,101867.81
2022-08-31T19:22:56.092Z,101865.69
2022-08-31T19:25:23.032Z,101869.91
2022-08-31T19:27:51.875Z,101874.59
2022-08-31T19:30:24.458Z,101872.09
2022-08-31T19:32:53.503Z,101881.09
2022-08-31T19:35:20.254Z,101879.22
2022-08-31T19:37:47.309Z,101875.03
2022-08-31T19:40:17.884Z,101881.94
2022-08-31T19:43:42.379Z,101875.47
2022-08-31T19:45:42.842Z,101879.34
2022-08-31T19:48:10.050Z,101877.75
2022-08-31T19:50:41.610Z,101877.09
2022-08-31T19:53:12.522Z,101872.97
2022-08-31T19:55:50.137Z,101878.41
2022-08-31T19:58:18.355Z,101872.06
2022-08-31T20:00:44.942Z,101873.59
2022-08-31T20:03:15.365Z,101876.22
2022-08-31T20:05:43.456Z,101873.00
2022-08-31T20:08:10.663Z,101876.78
2022-08-31T20:10:42.116Z,101880.44
2022-08-31T20:13:10.004Z,101883.88
2022-08-31T20:15:41.866Z,101869.69
2022-08-31T20:18:11.223Z,101874.50
2022-08-31T20:20:48.242Z,101875.13
2022-08-31T20:23:17.049Z,101886.13
2022-08-31T20:25:45.442Z,101882.47
2022-08-31T20:28:12.871Z,101879.09
2022-08-31T20:30:41.530Z,101889.78
2022-08-31T20:33:10.618Z,101883.81
2022-08-31T20:35:47.474Z,101881.13
2022-08-31T20:38:16.400Z,101882.38
2022-08-31T20:40:44.794Z,101884.66
2022-08-31T20:43:12.778Z,101891.16
2022-08-31T20:45:41.372Z,101886.03
2022-08-31T20:48:26.978Z,101889.00
2022-08-31T20:50:53.591Z,101893.56
2022-08-31T20:53:26.386Z,101893.56
2022-08-31T20:56:07.953Z,101891.59
2022-08-31T20:58:34.724Z,101890.31
2022-08-31T21:01:05.956Z,101901.06
2022-08-31T21:03:33.399Z,101886.19
2022-08-31T21:06:08.210Z,101890.97
2022-08-31T21:08:38.223Z,101896.97
2022-08-31T21:11:15.766Z,101902.28
2022-08-31T21:13:42.808Z,101900.38
2022-08-31T21:16:09.853Z,101901.28
2022-08-31T21:18:37.388Z,101902.50
2022-08-31T21:21:07.319Z,101908.16
2022-08-31T21:23:36.505Z,101909.03
2022-08-31T21:26:04.887Z,101909.59
2022-08-31T21:28:31.326Z,101906.53
2022-08-31T21:31:15.779Z,101904.28
2022-08-31T21:33:46.255Z,101906.56
2022-08-31T21:36:15.489Z,101912.81
2022-08-31T21:38:43.506Z,101912.88
2022-08-31T21:41:11.631Z,101907.50
2022-08-31T21:43:38.740Z,101908.94
2022-08-31T21:46:14.391Z,101906.44
2022-08-31T21:48:43.191Z,101906.16
2022-08-31T21:51:21.265Z,101910.41
2022-08-31T21:53:53.837Z,101912.13
2022-08-31T21:56:22.598Z,101910.78
2022-08-31T21:58:49.971Z,101905.94
2022-08-31T22:01:20.362Z,101911.91
2022-08-31T22:03:48.855Z,101920.66
2022-08-31T22:06:22.180Z,101919.81
2022-08-31T22:09:00.196Z,101914.75
2022-08-31T22:11:30.551Z,101912.50
2022-08-31T22:13:59.145Z,101919.19
2022-08-31T22:16:27.051Z,101922.00
2022-08-31T22:19:01.666Z,101917.47
2022-08-31T22:21:32.248Z,101927.88
2022-08-31T22:24:01.983Z,101929.59
2022-08-31T22:26:30.312Z,101929.22
2022-08-31T22:28:56.967Z,101929.22
2022-08-31T22:31:25.164Z,101923.22
2022-08-31T22:33:52.022Z,101925.75
2022-08-31T22:36:34.488Z,101925.81
2022-08-31T22:39:05.234Z,101929.78
2022-08-31T22:41:33.055Z,101926.63
2022-08-31T22:44:00.626Z,101929.13
2022-08-31T22:46:28.328Z,101919.53
2022-08-31T22:48:55.131Z,101926.97
2022-08-31T22:51:22.381Z,101934.31
2022-08-31T22:53:51.499Z,101927.28
2022-08-31T22:56:20.550Z,101925.56
2022-08-31T22:58:47.375Z,101928.41
2022-08-31T23:01:27.356Z,101932.94
2022-08-31T23:03:56.944Z,101930.38
2022-08-31T23:06:24.895Z,101930.91
2022-08-31T23:08:53.122Z,101935.53
2022-08-31T23:11:21.930Z,101928.44
2022-08-31T23:13:53.746Z,101930.97
2022-08-31T23:16:24.932Z,101929.59
2022-08-31T23:19:00.840Z,101929.31
2022-08-31T23:21:31.014Z,101926.41
2022-08-31T23:23:59.697Z,101921.94
2022-08-31T23:26:28.095Z,101927.56
2022-08-31T23:28:59.312Z,101928.69
2022-08-31T23:31:27.519Z,101925.06
2022-08-31T23:33:54.311Z,101923.56
2022-08-31T23:36:26.015Z,101921.91
2022-08-31T23:38:54.988Z,101921.63
2022-08-31T23:41:26.062Z,101922.13
2022-08-31T23:43:53.802Z,101917.94
2022-08-31T23:46:22.019Z,101918.03
2022-08-31T23:48:48.565Z,101921.75
2022-08-31T23:51:15.673Z,101919.53
2022-08-31T23:53:45.927Z,101915.28
2022-08-31T23:56:12.968Z,101920.94
2022-08-31T23:58:40.228Z,101912.97
